sensor_id;sensor_type;location;lat;lon;timestamp;P1;durP1;ratioP1;P2;durP2;ratioP2
41927;SDS011;27616;51.420;6.788;2023-07-20T00:00:06;5.35;;;2.28;;
41927;SDS011;27616;51.420;6.788;2023-07-20T00:02:38;4.82;;;2.25;;
41927;SDS011;27616;51.420;6.788;2023-07-20T00:12:42;4.82;;;2.15;;
41927;SDS011;27616;51.420;6.788;2023-07-20T00:15:12;4.53;;;2.22;;
41927;SDS011;27616;51.420;6.788;2023-07-20T00:21:26;4.60;;;2.38;;
41927;SDS011;27616;51.420;6.788;2023-07-20T00:23:52;4.55;;;2.33;;
41927;SDS011;27616;51.420;6.788;2023-07-20T00:26:17;3.97;;;2.17;;
41927;SDS011;27616;51.420;6.788;2023-07-20T00:28:44;5.13;;;2.25;;
41927;SDS011;27616;51.420;6.788;2023-07-20T00:31:10;4.50;;;2.22;;
41927;SDS011;27616;51.420;6.788;2023-07-20T00:33:36;3.47;;;2.22;;
41927;SDS011;27616;51.420;6.788;2023-07-20T00:36:01;2.47;;;1.77;;
41927;SDS011;27616;51.420;6.788;2023-07-20T00:38:27;5.43;;;1.98;;
41927;SDS011;27616;51.420;6.788;2023-07-20T00:40:52;4.22;;;2.17;;
41927;SDS011;27616;51.420;6.788;2023-07-20T00:43:18;3.92;;;2.10;;
41927;SDS011;27616;51.420;6.788;2023-07-20T00:45:44;7.32;;;2.58;;
41927;SDS011;27616;51.420;6.788;2023-07-20T00:48:10;4.88;;;2.28;;
41927;SDS011;27616;51.420;6.788;2023-07-20T00:50:36;5.38;;;2.63;;
41927;SDS011;27616;51.420;6.788;2023-07-20T00:53:02;4.20;;;2.20;;
41927;SDS011;27616;51.420;6.788;2023-07-20T00:55:31;5.30;;;2.60;;
41927;SDS011;27616;51.420;6.788;2023-07-20T00:57:57;4.93;;;2.40;;
41927;SDS011;27616;51.420;6.788;2023-07-20T01:00:24;6.05;;;2.25;;
41927;SDS011;27616;51.420;6.788;2023-07-20T01:02:50;4.10;;;2.10;;
41927;SDS011;27616;51.420;6.788;2023-07-20T01:05:16;3.90;;;2.25;;
41927;SDS011;27616;51.420;6.788;2023-07-20T01:07:43;3.33;;;1.95;;
41927;SDS011;27616;51.420;6.788;2023-07-20T01:10:24;5.13;;;2.40;;
41927;SDS011;27616;51.420;6.788;2023-07-20T01:13:03;4.60;;;2.25;;
41927;SDS011;27616;51.420;6.788;2023-07-20T01:15:32;4.93;;;2.30;;
41927;SDS011;27616;51.420;6.788;2023-07-20T01:17:59;5.43;;;2.00;;
41927;SDS011;27616;51.420;6.788;2023-07-20T01:20:26;6.05;;;2.58;;
41927;SDS011;27616;51.420;6.788;2023-07-20T01:31:38;5.72;;;2.30;;
41927;SDS011;27616;51.420;6.788;2023-07-20T01:34:07;6.07;;;2.53;;
41927;SDS011;27616;51.420;6.788;2023-07-20T01:36:36;5.93;;;2.80;;
41927;SDS011;27616;51.420;6.788;2023-07-20T01:39:03;5.85;;;2.72;;
41927;SDS011;27616;51.420;6.788;2023-07-20T01:41:30;4.22;;;2.47;;
41927;SDS011;27616;51.420;6.788;2023-07-20T01:43:59;5.25;;;2.85;;
41927;SDS011;27616;51.420;6.788;2023-07-20T01:46:25;6.90;;;3.15;;
41927;SDS011;27616;51.420;6.788;2023-07-20T01:48:51;8.93;;;3.10;;
41927;SDS011;27616;51.420;6.788;2023-07-20T01:51:17;7.80;;;2.92;;
41927;SDS011;27616;51.420;6.788;2023-07-20T01:53:43;7.25;;;3.08;;
41927;SDS011;27616;51.420;6.788;2023-07-20T01:56:09;5.95;;;2.88;;
41927;SDS011;27616;51.420;6.788;2023-07-20T01:58:37;6.95;;;2.70;;
41927;SDS011;27616;51.420;6.788;2023-07-20T02:01:03;7.43;;;3.65;;
41927;SDS011;27616;51.420;6.788;2023-07-20T02:03:29;6.32;;;3.00;;
41927;SDS011;27616;51.420;6.788;2023-07-20T02:05:54;6.88;;;2.85;;
41927;SDS011;27616;51.420;6.788;2023-07-20T02:08:22;6.45;;;2.92;;
41927;SDS011;27616;51.420;6.788;2023-07-20T02:10:48;7.20;;;3.30;;
41927;SDS011;27616;51.420;6.788;2023-07-20T02:13:14;7.53;;;3.30;;
41927;SDS011;27616;51.420;6.788;2023-07-20T02:15:41;6.80;;;3.35;;
41927;SDS011;27616;51.420;6.788;2023-07-20T02:18:07;7.57;;;3.25;;
41927;SDS011;27616;51.420;6.788;2023-07-20T02:20:33;6.45;;;3.17;;
41927;SDS011;27616;51.420;6.788;2023-07-20T02:22:59;6.70;;;3.30;;
41927;SDS011;27616;51.420;6.788;2023-07-20T02:25:25;8.10;;;3.80;;
41927;SDS011;27616;51.420;6.788;2023-07-20T02:27:51;7.72;;;4.00;;
41927;SDS011;27616;51.420;6.788;2023-07-20T02:30:17;5.95;;;3.45;;
41927;SDS011;27616;51.420;6.788;2023-07-20T02:32:43;7.80;;;3.78;;
41927;SDS011;27616;51.420;6.788;2023-07-20T02:35:14;7.28;;;3.80;;
41927;SDS011;27616;51.420;6.788;2023-07-20T02:37:40;8.45;;;3.55;;
41927;SDS011;27616;51.420;6.788;2023-07-20T02:40:06;9.75;;;4.25;;
41927;SDS011;27616;51.420;6.788;2023-07-20T02:42:32;7.30;;;3.78;;
41927;SDS011;27616;51.420;6.788;2023-07-20T02:44:58;7.82;;;3.63;;
41927;SDS011;27616;51.420;6.788;2023-07-20T02:47:24;12.88;;;4.60;;
41927;SDS011;27616;51.420;6.788;2023-07-20T02:49:50;7.75;;;3.83;;
41927;SDS011;27616;51.420;6.788;2023-07-20T02:52:16;7.90;;;3.80;;
41927;SDS011;27616;51.420;6.788;2023-07-20T02:54:41;6.65;;;3.67;;
41927;SDS011;27616;51.420;6.788;2023-07-20T02:57:07;12.95;;;4.30;;
41927;SDS011;27616;51.420;6.788;2023-07-20T02:59:33;10.23;;;4.18;;
41927;SDS011;27616;51.420;6.788;2023-07-20T03:01:58;10.25;;;4.53;;
41927;SDS011;27616;51.420;6.788;2023-07-20T03:04:27;8.70;;;4.38;;
41927;SDS011;27616;51.420;6.788;2023-07-20T03:06:53;10.25;;;4.50;;
41927;SDS011;27616;51.420;6.788;2023-07-20T03:09:18;8.50;;;4.15;;
41927;SDS011;27616;51.420;6.788;2023-07-20T03:11:44;8.38;;;4.68;;
41927;SDS011;27616;51.420;6.788;2023-07-20T03:14:11;8.82;;;4.28;;
41927;SDS011;27616;51.420;6.788;2023-07-20T03:16:37;8.38;;;4.40;;
41927;SDS011;27616;51.420;6.788;2023-07-20T03:19:03;7.88;;;4.28;;
41927;SDS011;27616;51.420;6.788;2023-07-20T03:21:29;10.10;;;4.00;;
41927;SDS011;27616;51.420;6.788;2023-07-20T03:23:55;9.20;;;4.75;;
41927;SDS011;27616;51.420;6.788;2023-07-20T03:26:22;8.15;;;4.43;;
41927;SDS011;27616;51.420;6.788;2023-07-20T03:28:48;9.30;;;4.10;;
41927;SDS011;27616;51.420;6.788;2023-07-20T03:31:14;7.10;;;3.80;;
41927;SDS011;27616;51.420;6.788;2023-07-20T03:33:40;8.23;;;4.22;;
41927;SDS011;27616;51.420;6.788;2023-07-20T03:36:06;11.32;;;4.50;;
41927;SDS011;27616;51.420;6.788;2023-07-20T03:38:32;8.63;;;4.22;;
41927;SDS011;27616;51.420;6.788;2023-07-20T03:40:58;8.15;;;4.38;;
41927;SDS011;27616;51.420;6.788;2023-07-20T03:43:25;9.32;;;4.55;;
41927;SDS011;27616;51.420;6.788;2023-07-20T03:45:52;9.13;;;4.60;;
41927;SDS011;27616;51.420;6.788;2023-07-20T03:48:18;8.60;;;4.45;;
41927;SDS011;27616;51.420;6.788;2023-07-20T03:50:46;12.73;;;5.68;;
41927;SDS011;27616;51.420;6.788;2023-07-20T03:53:12;10.10;;;5.00;;
41927;SDS011;27616;51.420;6.788;2023-07-20T03:55:39;9.70;;;5.10;;
41927;SDS011;27616;51.420;6.788;2023-07-20T03:58:06;10.05;;;5.03;;
41927;SDS011;27616;51.420;6.788;2023-07-20T04:00:32;10.90;;;5.68;;
41927;SDS011;27616;51.420;6.788;2023-07-20T04:02:58;12.98;;;6.07;;
41927;SDS011;27616;51.420;6.788;2023-07-20T04:05:24;12.13;;;5.93;;
41927;SDS011;27616;51.420;6.788;2023-07-20T04:07:51;13.07;;;5.68;;
41927;SDS011;27616;51.420;6.788;2023-07-20T04:10:17;10.02;;;5.10;;
41927;SDS011;27616;51.420;6.788;2023-07-20T04:12:43;12.45;;;6.78;;
41927;SDS011;27616;51.420;6.788;2023-07-20T04:15:09;14.63;;;6.90;;
41927;SDS011;27616;51.420;6.788;2023-07-20T04:17:35;13.57;;;7.38;;
41927;SDS011;27616;51.420;6.788;2023-07-20T04:20:01;18.40;;;8.75;;
41927;SDS011;27616;51.420;6.788;2023-07-20T04:22:28;17.15;;;8.52;;
41927;SDS011;27616;51.420;6.788;2023-07-20T04:24:53;18.75;;;9.45;;
41927;SDS011;27616;51.420;6.788;2023-07-20T04:27:19;19.23;;;10.32;;
41927;SDS011;27616;51.420;6.788;2023-07-20T04:29:45;18.90;;;9.82;;
41927;SDS011;27616;51.420;6.788;2023-07-20T04:32:12;19.42;;;10.32;;
41927;SDS011;27616;51.420;6.788;2023-07-20T04:34:37;20.02;;;9.68;;
41927;SDS011;27616;51.420;6.788;2023-07-20T04:37:04;17.08;;;9.98;;
41927;SDS011;27616;51.420;6.788;2023-07-20T04:39:30;19.60;;;9.95;;
41927;SDS011;27616;51.420;6.788;2023-07-20T04:41:57;18.38;;;10.10;;
41927;SDS011;27616;51.420;6.788;2023-07-20T04:44:23;17.35;;;9.90;;
41927;SDS011;27616;51.420;6.788;2023-07-20T04:46:49;17.83;;;9.70;;
41927;SDS011;27616;51.420;6.788;2023-07-20T04:49:15;17.77;;;9.48;;
41927;SDS011;27616;51.420;6.788;2023-07-20T04:51:42;16.25;;;9.68;;
41927;SDS011;27616;51.420;6.788;2023-07-20T04:54:09;19.48;;;9.48;;
41927;SDS011;27616;51.420;6.788;2023-07-20T04:56:36;17.58;;;9.25;;
41927;SDS011;27616;51.420;6.788;2023-07-20T04:59:05;15.77;;;8.38;;
41927;SDS011;27616;51.420;6.788;2023-07-20T05:01:31;18.60;;;10.07;;
41927;SDS011;27616;51.420;6.788;2023-07-20T05:03:57;17.50;;;8.70;;
41927;SDS011;27616;51.420;6.788;2023-07-20T05:06:22;18.15;;;9.10;;
41927;SDS011;27616;51.420;6.788;2023-07-20T05:08:48;16.48;;;8.88;;
41927;SDS011;27616;51.420;6.788;2023-07-20T05:11:14;15.93;;;8.90;;
41927;SDS011;27616;51.420;6.788;2023-07-20T05:13:40;16.58;;;9.15;;
41927;SDS011;27616;51.420;6.788;2023-07-20T05:16:05;17.95;;;9.00;;
41927;SDS011;27616;51.420;6.788;2023-07-20T05:18:32;15.43;;;8.85;;
41927;SDS011;27616;51.420;6.788;2023-07-20T05:20:58;15.70;;;8.57;;
41927;SDS011;27616;51.420;6.788;2023-07-20T05:23:24;14.55;;;8.35;;
41927;SDS011;27616;51.420;6.788;2023-07-20T05:25:54;14.68;;;7.80;;
41927;SDS011;27616;51.420;6.788;2023-07-20T05:28:21;13.73;;;7.68;;
41927;SDS011;27616;51.420;6.788;2023-07-20T05:30:47;12.80;;;7.05;;
41927;SDS011;27616;51.420;6.788;2023-07-20T05:33:13;12.18;;;6.72;;
41927;SDS011;27616;51.420;6.788;2023-07-20T05:35:38;11.52;;;6.65;;
41927;SDS011;27616;51.420;6.788;2023-07-20T05:38:04;16.52;;;6.78;;
41927;SDS011;27616;51.420;6.788;2023-07-20T05:40:31;13.68;;;6.30;;
41927;SDS011;27616;51.420;6.788;2023-07-20T05:42:57;9.68;;;5.63;;
41927;SDS011;27616;51.420;6.788;2023-07-20T05:45:24;9.25;;;4.53;;
41927;SDS011;27616;51.420;6.788;2023-07-20T05:47:49;7.68;;;4.20;;
41927;SDS011;27616;51.420;6.788;2023-07-20T05:50:15;7.13;;;4.05;;
41927;SDS011;27616;51.420;6.788;2023-07-20T05:52:40;8.27;;;3.92;;
41927;SDS011;27616;51.420;6.788;2023-07-20T05:55:06;7.00;;;4.03;;
41927;SDS011;27616;51.420;6.788;2023-07-20T05:57:32;8.73;;;4.20;;
41927;SDS011;27616;51.420;6.788;2023-07-20T05:59:58;7.03;;;3.60;;
41927;SDS011;27616;51.420;6.788;2023-07-20T06:02:24;9.30;;;4.35;;
41927;SDS011;27616;51.420;6.788;2023-07-20T06:04:49;7.80;;;3.63;;
41927;SDS011;27616;51.420;6.788;2023-07-20T06:07:15;6.85;;;4.10;;
41927;SDS011;27616;51.420;6.788;2023-07-20T06:09:41;6.63;;;3.85;;
41927;SDS011;27616;51.420;6.788;2023-07-20T06:12:06;7.60;;;4.10;;
41927;SDS011;27616;51.420;6.788;2023-07-20T06:14:33;6.90;;;3.72;;
41927;SDS011;27616;51.420;6.788;2023-07-20T06:16:59;7.57;;;4.10;;
41927;SDS011;27616;51.420;6.788;2023-07-20T06:19:24;8.60;;;4.32;;
41927;SDS011;27616;51.420;6.788;2023-07-20T06:21:50;7.72;;;4.10;;
41927;SDS011;27616;51.420;6.788;2023-07-20T06:24:19;11.45;;;5.10;;
41927;SDS011;27616;51.420;6.788;2023-07-20T06:26:44;9.85;;;5.35;;
41927;SDS011;27616;51.420;6.788;2023-07-20T06:29:10;10.48;;;4.85;;
41927;SDS011;27616;51.420;6.788;2023-07-20T06:31:36;9.50;;;4.82;;
41927;SDS011;27616;51.420;6.788;2023-07-20T06:34:02;10.20;;;5.97;;
41927;SDS011;27616;51.420;6.788;2023-07-20T06:36:28;10.32;;;6.60;;
41927;SDS011;27616;51.420;6.788;2023-07-20T06:38:54;11.98;;;6.85;;
41927;SDS011;27616;51.420;6.788;2023-07-20T06:41:20;12.77;;;6.75;;
41927;SDS011;27616;51.420;6.788;2023-07-20T06:43:47;11.10;;;6.60;;
41927;SDS011;27616;51.420;6.788;2023-07-20T06:46:13;13.90;;;6.95;;
41927;SDS011;27616;51.420;6.788;2023-07-20T06:48:39;9.73;;;5.80;;
41927;SDS011;27616;51.420;6.788;2023-07-20T06:51:04;12.93;;;6.25;;
41927;SDS011;27616;51.420;6.788;2023-07-20T06:53:30;10.38;;;6.20;;
41927;SDS011;27616;51.420;6.788;2023-07-20T06:55:56;11.98;;;7.07;;
41927;SDS011;27616;51.420;6.788;2023-07-20T06:58:23;14.88;;;8.13;;
41927;SDS011;27616;51.420;6.788;2023-07-20T07:00:48;16.77;;;8.93;;
41927;SDS011;27616;51.420;6.788;2023-07-20T07:03:14;16.25;;;9.38;;
41927;SDS011;27616;51.420;6.788;2023-07-20T07:05:40;12.38;;;7.15;;
41927;SDS011;27616;51.420;6.788;2023-07-20T07:08:05;12.55;;;5.93;;
41927;SDS011;27616;51.420;6.788;2023-07-20T07:10:32;10.35;;;5.53;;
41927;SDS011;27616;51.420;6.788;2023-07-20T07:12:58;11.50;;;6.22;;
41927;SDS011;27616;51.420;6.788;2023-07-20T07:15:24;13.43;;;7.68;;
41927;SDS011;27616;51.420;6.788;2023-07-20T07:17:49;13.63;;;7.07;;
41927;SDS011;27616;51.420;6.788;2023-07-20T07:20:15;13.70;;;7.50;;
41927;SDS011;27616;51.420;6.788;2023-07-20T07:22:41;14.23;;;6.35;;
41927;SDS011;27616;51.420;6.788;2023-07-20T07:25:09;12.38;;;6.68;;
41927;SDS011;27616;51.420;6.788;2023-07-20T07:27:35;13.93;;;6.70;;
41927;SDS011;27616;51.420;6.788;2023-07-20T07:30:01;12.60;;;6.85;;
41927;SDS011;27616;51.420;6.788;2023-07-20T07:32:27;15.07;;;7.70;;
41927;SDS011;27616;51.420;6.788;2023-07-20T07:34:53;14.13;;;7.40;;
41927;SDS011;27616;51.420;6.788;2023-07-20T07:37:19;14.00;;;7.00;;
41927;SDS011;27616;51.420;6.788;2023-07-20T07:39:45;11.65;;;7.05;;
41927;SDS011;27616;51.420;6.788;2023-07-20T07:42:11;14.05;;;8.00;;
41927;SDS011;27616;51.420;6.788;2023-07-20T07:44:37;12.13;;;6.53;;
41927;SDS011;27616;51.420;6.788;2023-07-20T07:47:03;13.13;;;6.07;;
41927;SDS011;27616;51.420;6.788;2023-07-20T07:49:29;8.82;;;4.40;;
41927;SDS011;27616;51.420;6.788;2023-07-20T07:51:54;6.85;;;4.65;;
41927;SDS011;27616;51.420;6.788;2023-07-20T07:54:20;6.65;;;4.70;;
41927;SDS011;27616;51.420;6.788;2023-07-20T07:56:45;6.97;;;4.18;;
41927;SDS011;27616;51.420;6.788;2023-07-20T07:59:11;9.23;;;5.60;;
41927;SDS011;27616;51.420;6.788;2023-07-20T08:01:37;8.65;;;5.03;;
41927;SDS011;27616;51.420;6.788;2023-07-20T08:04:02;7.35;;;4.45;;
41927;SDS011;27616;51.420;6.788;2023-07-20T08:06:28;7.40;;;3.70;;
41927;SDS011;27616;51.420;6.788;2023-07-20T08:08:54;7.13;;;3.78;;
41927;SDS011;27616;51.420;6.788;2023-07-20T08:11:20;6.88;;;3.90;;
41927;SDS011;27616;51.420;6.788;2023-07-20T08:13:46;4.28;;;2.78;;
41927;SDS011;27616;51.420;6.788;2023-07-20T08:16:11;3.88;;;1.88;;
41927;SDS011;27616;51.420;6.788;2023-07-20T08:18:37;7.93;;;3.20;;
41927;SDS011;27616;51.420;6.788;2023-07-20T08:21:03;8.02;;;4.40;;
41927;SDS011;27616;51.420;6.788;2023-07-20T08:23:28;9.45;;;4.63;;
41927;SDS011;27616;51.420;6.788;2023-07-20T08:25:54;10.82;;;5.28;;
41927;SDS011;27616;51.420;6.788;2023-07-20T08:28:20;12.52;;;5.65;;
41927;SDS011;27616;51.420;6.788;2023-07-20T08:30:46;9.77;;;5.50;;
41927;SDS011;27616;51.420;6.788;2023-07-20T08:33:13;11.27;;;7.38;;
41927;SDS011;27616;51.420;6.788;2023-07-20T08:35:40;11.98;;;6.95;;
41927;SDS011;27616;51.420;6.788;2023-07-20T08:38:06;10.77;;;5.70;;
41927;SDS011;27616;51.420;6.788;2023-07-20T08:40:33;7.05;;;3.72;;
41927;SDS011;27616;51.420;6.788;2023-07-20T08:42:59;6.85;;;2.75;;
41927;SDS011;27616;51.420;6.788;2023-07-20T08:45:26;4.13;;;1.58;;
41927;SDS011;27616;51.420;6.788;2023-07-20T08:47:56;4.25;;;1.67;;
41927;SDS011;27616;51.420;6.788;2023-07-20T08:50:25;5.72;;;2.63;;
41927;SDS011;27616;51.420;6.788;2023-07-20T08:52:52;3.90;;;2.40;;
41927;SDS011;27616;51.420;6.788;2023-07-20T08:55:19;5.53;;;2.42;;
41927;SDS011;27616;51.420;6.788;2023-07-20T08:57:45;8.48;;;3.17;;
41927;SDS011;27616;51.420;6.788;2023-07-20T09:02:42;3.88;;;1.90;;
41927;SDS011;27616;51.420;6.788;2023-07-20T09:05:10;1.92;;;1.02;;
41927;SDS011;27616;51.420;6.788;2023-07-20T09:07:39;1.80;;;0.90;;
41927;SDS011;27616;51.420;6.788;2023-07-20T09:10:05;3.90;;;1.50;;
41927;SDS011;27616;51.420;6.788;2023-07-20T09:12:32;2.60;;;1.30;;
41927;SDS011;27616;51.420;6.788;2023-07-20T09:15:00;2.53;;;1.33;;
41927;SDS011;27616;51.420;6.788;2023-07-20T09:17:26;1.92;;;1.15;;
41927;SDS011;27616;51.420;6.788;2023-07-20T09:19:52;2.47;;;1.30;;
41927;SDS011;27616;51.420;6.788;2023-07-20T09:22:17;2.67;;;1.30;;
41927;SDS011;27616;51.420;6.788;2023-07-20T09:24:43;2.75;;;1.40;;
41927;SDS011;27616;51.420;6.788;2023-07-20T09:27:09;3.40;;;1.70;;
41927;SDS011;27616;51.420;6.788;2023-07-20T09:29:56;3.65;;;1.30;;
41927;SDS011;27616;51.420;6.788;2023-07-20T09:32:21;4.22;;;1.63;;
41927;SDS011;27616;51.420;6.788;2023-07-20T09:34:48;2.28;;;1.40;;
41927;SDS011;27616;51.420;6.788;2023-07-20T09:37:22;2.30;;;0.93;;
41927;SDS011;27616;51.420;6.788;2023-07-20T09:39:48;1.23;;;0.70;;
41927;SDS011;27616;51.420;6.788;2023-07-20T09:42:17;2.95;;;1.45;;
41927;SDS011;27616;51.420;6.788;2023-07-20T09:44:43;2.90;;;1.02;;
41927;SDS011;27616;51.420;6.788;2023-07-20T09:47:09;2.70;;;0.98;;
41927;SDS011;27616;51.420;6.788;2023-07-20T09:49:41;2.20;;;0.90;;
41927;SDS011;27616;51.420;6.788;2023-07-20T09:52:11;2.75;;;0.88;;
41927;SDS011;27616;51.420;6.788;2023-07-20T09:54:38;2.15;;;0.90;;
41927;SDS011;27616;51.420;6.788;2023-07-20T09:57:04;1.95;;;0.80;;
41927;SDS011;27616;51.420;6.788;2023-07-20T09:59:35;2.20;;;1.00;;
41927;SDS011;27616;51.420;6.788;2023-07-20T10:02:01;1.67;;;1.00;;
41927;SDS011;27616;51.420;6.788;2023-07-20T10:04:36;5.55;;;1.33;;
41927;SDS011;27616;51.420;6.788;2023-07-20T10:07:04;4.90;;;1.40;;
41927;SDS011;27616;51.420;6.788;2023-07-20T10:09:35;1.75;;;0.93;;
41927;SDS011;27616;51.420;6.788;2023-07-20T10:12:04;3.65;;;1.60;;
41927;SDS011;27616;51.420;6.788;2023-07-20T10:14:31;2.30;;;1.20;;
41927;SDS011;27616;51.420;6.788;2023-07-20T10:17:03;2.97;;;1.10;;
41927;SDS011;27616;51.420;6.788;2023-07-20T10:22:25;1.92;;;0.93;;
41927;SDS011;27616;51.420;6.788;2023-07-20T10:24:52;2.45;;;0.68;;
41927;SDS011;27616;51.420;6.788;2023-07-20T10:27:23;1.33;;;0.50;;
41927;SDS011;27616;51.420;6.788;2023-07-20T10:29:50;1.67;;;0.70;;
41927;SDS011;27616;51.420;6.788;2023-07-20T10:32:18;1.05;;;0.80;;
41927;SDS011;27616;51.420;6.788;2023-07-20T10:34:50;0.73;;;0.70;;
41927;SDS011;27616;51.420;6.788;2023-07-20T10:40:24;1.38;;;0.70;;
41927;SDS011;27616;51.420;6.788;2023-07-20T10:43:03;2.45;;;1.27;;
41927;SDS011;27616;51.420;6.788;2023-07-20T10:48:22;1.40;;;0.93;;
41927;SDS011;27616;51.420;6.788;2023-07-20T10:53:56;2.42;;;1.27;;
41927;SDS011;27616;51.420;6.788;2023-07-20T10:56:26;2.47;;;1.10;;
41927;SDS011;27616;51.420;6.788;2023-07-20T10:58:58;2.58;;;1.40;;
41927;SDS011;27616;51.420;6.788;2023-07-20T11:01:29;1.90;;;1.00;;
41927;SDS011;27616;51.420;6.788;2023-07-20T11:03:57;2.78;;;1.00;;
41927;SDS011;27616;51.420;6.788;2023-07-20T11:11:34;1.23;;;0.77;;
41927;SDS011;27616;51.420;6.788;2023-07-20T11:14:01;1.95;;;0.95;;
41927;SDS011;27616;51.420;6.788;2023-07-20T11:19:05;1.35;;;0.85;;
41927;SDS011;27616;51.420;6.788;2023-07-20T11:21:40;2.03;;;1.10;;
41927;SDS011;27616;51.420;6.788;2023-07-20T11:24:07;4.93;;;1.23;;
41927;SDS011;27616;51.420;6.788;2023-07-20T11:26:43;1.52;;;0.73;;
41927;SDS011;27616;51.420;6.788;2023-07-20T11:29:11;4.35;;;2.28;;
41927;SDS011;27616;51.420;6.788;2023-07-20T11:31:41;3.20;;;1.65;;
41927;SDS011;27616;51.420;6.788;2023-07-20T11:34:11;3.67;;;1.25;;
41927;SDS011;27616;51.420;6.788;2023-07-20T11:36:42;2.65;;;0.82;;
41927;SDS011;27616;51.420;6.788;2023-07-20T11:39:13;3.22;;;1.40;;
41927;SDS011;27616;51.420;6.788;2023-07-20T11:41:43;3.28;;;1.90;;
41927;SDS011;27616;51.420;6.788;2023-07-20T11:44:11;3.25;;;1.52;;
41927;SDS011;27616;51.420;6.788;2023-07-20T11:46:43;1.00;;;0.73;;
41927;SDS011;27616;51.420;6.788;2023-07-20T11:49:09;4.72;;;1.80;;
41927;SDS011;27616;51.420;6.788;2023-07-20T11:51:35;1.95;;;0.75;;
41927;SDS011;27616;51.420;6.788;2023-07-20T11:54:03;0.70;;;0.60;;
41927;SDS011;27616;51.420;6.788;2023-07-20T11:56:30;1.77;;;0.80;;
41927;SDS011;27616;51.420;6.788;2023-07-20T11:58:56;1.42;;;0.80;;
41927;SDS011;27616;51.420;6.788;2023-07-20T12:01:25;2.35;;;1.10;;
41927;SDS011;27616;51.420;6.788;2023-07-20T12:04:00;2.00;;;1.05;;
41927;SDS011;27616;51.420;6.788;2023-07-20T12:06:28;1.30;;;0.68;;
41927;SDS011;27616;51.420;6.788;2023-07-20T12:08:55;3.88;;;1.83;;
41927;SDS011;27616;51.420;6.788;2023-07-20T12:14:07;1.85;;;0.90;;
41927;SDS011;27616;51.420;6.788;2023-07-20T12:16:34;1.73;;;0.75;;
41927;SDS011;27616;51.420;6.788;2023-07-20T12:21:39;1.08;;;0.70;;
41927;SDS011;27616;51.420;6.788;2023-07-20T12:24:07;1.25;;;0.63;;
41927;SDS011;27616;51.420;6.788;2023-07-20T12:26:36;1.15;;;0.70;;
41927;SDS011;27616;51.420;6.788;2023-07-20T12:29:02;0.90;;;0.50;;
41927;SDS011;27616;51.420;6.788;2023-07-20T12:31:28;2.53;;;1.15;;
41927;SDS011;27616;51.420;6.788;2023-07-20T12:33:55;2.00;;;0.90;;
41927;SDS011;27616;51.420;6.788;2023-07-20T12:36:22;1.15;;;0.70;;
41927;SDS011;27616;51.420;6.788;2023-07-20T12:38:47;1.67;;;0.82;;
41927;SDS011;27616;51.420;6.788;2023-07-20T12:41:13;2.97;;;0.77;;
41927;SDS011;27616;51.420;6.788;2023-07-20T12:43:39;1.05;;;0.73;;
41927;SDS011;27616;51.420;6.788;2023-07-20T12:46:05;1.58;;;0.60;;
41927;SDS011;27616;51.420;6.788;2023-07-20T12:48:31;1.30;;;0.80;;
41927;SDS011;27616;51.420;6.788;2023-07-20T12:50:57;1.85;;;0.90;;
41927;SDS011;27616;51.420;6.788;2023-07-20T12:53:23;2.15;;;0.80;;
41927;SDS011;27616;51.420;6.788;2023-07-20T12:55:49;2.58;;;0.52;;
41927;SDS011;27616;51.420;6.788;2023-07-20T12:58:15;1.60;;;0.70;;
41927;SDS011;27616;51.420;6.788;2023-07-20T13:00:40;3.50;;;1.65;;
41927;SDS011;27616;51.420;6.788;2023-07-20T13:03:06;2.13;;;0.60;;
41927;SDS011;27616;51.420;6.788;2023-07-20T13:05:33;0.50;;;0.38;;
41927;SDS011;27616;51.420;6.788;2023-07-20T13:08:01;2.53;;;0.90;;
41927;SDS011;27616;51.420;6.788;2023-07-20T13:10:27;1.65;;;0.90;;
41927;SDS011;27616;51.420;6.788;2023-07-20T13:12:54;2.67;;;1.38;;
41927;SDS011;27616;51.420;6.788;2023-07-20T13:15:20;2.92;;;1.25;;
41927;SDS011;27616;51.420;6.788;2023-07-20T13:17:45;1.85;;;0.93;;
41927;SDS011;27616;51.420;6.788;2023-07-20T13:20:11;1.20;;;0.60;;
41927;SDS011;27616;51.420;6.788;2023-07-20T13:22:37;1.30;;;0.80;;
41927;SDS011;27616;51.420;6.788;2023-07-20T13:25:04;2.58;;;1.33;;
41927;SDS011;27616;51.420;6.788;2023-07-20T13:27:30;0.82;;;0.50;;
41927;SDS011;27616;51.420;6.788;2023-07-20T13:29:56;2.22;;;0.95;;
41927;SDS011;27616;51.420;6.788;2023-07-20T13:32:23;0.75;;;0.50;;
41927;SDS011;27616;51.420;6.788;2023-07-20T13:34:48;1.50;;;0.80;;
41927;SDS011;27616;51.420;6.788;2023-07-20T13:37:14;1.30;;;0.70;;
41927;SDS011;27616;51.420;6.788;2023-07-20T13:39:41;1.15;;;0.55;;
41927;SDS011;27616;51.420;6.788;2023-07-20T13:42:06;0.73;;;0.50;;
41927;SDS011;27616;51.420;6.788;2023-07-20T13:44:34;1.05;;;0.57;;
41927;SDS011;27616;51.420;6.788;2023-07-20T13:47:00;2.75;;;1.45;;
41927;SDS011;27616;51.420;6.788;2023-07-20T13:49:26;0.68;;;0.60;;
41927;SDS011;27616;51.420;6.788;2023-07-20T13:51:52;1.40;;;0.70;;
41927;SDS011;27616;51.420;6.788;2023-07-20T13:54:18;3.28;;;1.90;;
41927;SDS011;27616;51.420;6.788;2023-07-20T13:56:44;2.22;;;1.27;;
41927;SDS011;27616;51.420;6.788;2023-07-20T13:59:09;3.22;;;1.50;;
41927;SDS011;27616;51.420;6.788;2023-07-20T14:01:35;3.90;;;2.20;;
41927;SDS011;27616;51.420;6.788;2023-07-20T14:04:01;5.63;;;3.17;;
41927;SDS011;27616;51.420;6.788;2023-07-20T14:06:29;2.35;;;1.35;;
41927;SDS011;27616;51.420;6.788;2023-07-20T14:11:22;4.15;;;2.15;;
41927;SDS011;27616;51.420;6.788;2023-07-20T14:13:48;12.63;;;7.65;;
41927;SDS011;27616;51.420;6.788;2023-07-20T14:16:14;8.85;;;5.20;;
41927;SDS011;27616;51.420;6.788;2023-07-20T14:18:40;1.60;;;0.68;;
41927;SDS011;27616;51.420;6.788;2023-07-20T14:21:06;3.33;;;1.60;;
41927;SDS011;27616;51.420;6.788;2023-07-20T14:23:32;3.13;;;1.83;;
41927;SDS011;27616;51.420;6.788;2023-07-20T14:25:57;1.67;;;1.02;;
41927;SDS011;27616;51.420;6.788;2023-07-20T14:28:24;1.20;;;0.80;;
41927;SDS011;27616;51.420;6.788;2023-07-20T14:30:49;0.75;;;0.55;;
41927;SDS011;27616;51.420;6.788;2023-07-20T14:33:15;1.98;;;0.77;;
41927;SDS011;27616;51.420;6.788;2023-07-20T14:35:41;0.73;;;0.43;;
41927;SDS011;27616;51.420;6.788;2023-07-20T14:38:06;1.88;;;1.00;;
41927;SDS011;27616;51.420;6.788;2023-07-20T14:40:32;3.92;;;2.10;;
41927;SDS011;27616;51.420;6.788;2023-07-20T14:42:58;1.73;;;0.80;;
41927;SDS011;27616;51.420;6.788;2023-07-20T14:45:26;1.67;;;0.60;;
41927;SDS011;27616;51.420;6.788;2023-07-20T14:47:52;1.10;;;0.60;;
41927;SDS011;27616;51.420;6.788;2023-07-20T14:50:21;0.85;;;0.55;;
41927;SDS011;27616;51.420;6.788;2023-07-20T14:52:47;1.88;;;0.70;;
41927;SDS011;27616;51.420;6.788;2023-07-20T14:55:12;1.85;;;0.60;;
41927;SDS011;27616;51.420;6.788;2023-07-20T14:57:38;1.10;;;0.60;;
41927;SDS011;27616;51.420;6.788;2023-07-20T15:00:04;0.88;;;0.50;;
41927;SDS011;27616;51.420;6.788;2023-07-20T15:02:33;1.40;;;0.75;;
41927;SDS011;27616;51.420;6.788;2023-07-20T15:04:59;1.70;;;0.60;;
41927;SDS011;27616;51.420;6.788;2023-07-20T15:07:25;1.38;;;0.75;;
41927;SDS011;27616;51.420;6.788;2023-07-20T15:09:50;0.80;;;0.60;;
41927;SDS011;27616;51.420;6.788;2023-07-20T15:12:16;3.00;;;1.10;;
41927;SDS011;27616;51.420;6.788;2023-07-20T15:14:42;1.77;;;0.80;;
41927;SDS011;27616;51.420;6.788;2023-07-20T15:17:11;1.50;;;0.75;;
41927;SDS011;27616;51.420;6.788;2023-07-20T15:19:37;12.32;;;7.05;;
41927;SDS011;27616;51.420;6.788;2023-07-20T15:22:04;1.55;;;0.98;;
41927;SDS011;27616;51.420;6.788;2023-07-20T15:24:31;5.03;;;2.58;;
41927;SDS011;27616;51.420;6.788;2023-07-20T15:26:57;1.67;;;0.80;;
41927;SDS011;27616;51.420;6.788;2023-07-20T15:29:24;0.82;;;0.65;;